Time;durP1;ratioP1;P1;durP2;ratioP2;P2;SDS_P1;SDS_P2;PMS_P1;PMS_P2;Temp;Humidity;BMP_temperature;BMP_pressure;BME280_temperature;BME280_humidity;BME280_pressure;Samples;Min_cycle;Max_cycle;Signal;HPM_P1;HPM_P2
2021/04/15 00:00:11;;;;;;;4.03;3.05;;;0.90;99.90;;;;;;1981798;72;21051;-77
2021/04/15 00:02:38;;;;;;;6.40;3.58;;;0.90;99.90;;;;;;1981672;72;21109;-75
2021/04/15 00:05:04;;;;;;;7.50;3.75;;;0.90;99.90;;;;;;1981669;72;21062;-76
2021/04/15 00:07:30;;;;;;;10.80;4.80;;;0.80;99.90;;;;;;1981633;72;21129;-76
2021/04/15 00:09:56;;;;;;;5.55;3.83;;;0.80;99.90;;;;;;1981666;72;21491;-75
2021/04/15 00:12:22;;;;;;;4.85;3.52;;;0.70;99.90;;;;;;1981667;72;21404;-75
2021/04/15 00:14:48;;;;;;;4.92;3.20;;;0.70;99.90;;;;;;1981649;72;21466;-76
2021/04/15 00:17:14;;;;;;;6.22;3.42;;;0.60;99.90;;;;;;1981626;72;21051;-75
2021/04/15 00:19:40;;;;;;;5.42;3.35;;;0.60;99.90;;;;;;1981659;72;21113;-75
2021/04/15 00:22:07;;;;;;;5.58;3.30;;;0.60;99.90;;;;;;1981659;72;21019;-77
2021/04/15 00:24:33;;;;;;;4.05;2.75;;;0.60;99.90;;;;;;1981889;72;21192;-76
2021/04/15 00:26:59;;;;;;;7.65;2.50;;;0.40;99.90;;;;;;1981683;72;21117;-76
2021/04/15 00:29:25;;;;;;;3.58;3.15;;;0.40;99.90;;;;;;1981751;72;21028;-76
2021/04/15 00:31:51;;;;;;;5.00;3.33;;;0.30;99.90;;;;;;1981720;72;21109;-75
2021/04/15 00:34:17;;;;;;;4.47;2.85;;;0.30;99.90;;;;;;1981699;72;21120;-75
2021/04/15 00:36:43;;;;;;;4.70;3.30;;;0.30;99.90;;;;;;1981748;72;21098;-76
2021/04/15 00:39:09;;;;;;;5.17;3.40;;;0.40;99.90;;;;;;1981535;72;21051;-75
2021/04/15 00:41:35;;;;;;;3.70;3.10;;;0.30;99.90;;;;;;1981815;72;21066;-75
2021/04/15 00:44:02;;;;;;;4.47;3.45;;;0.30;99.90;;;;;;1981636;72;21512;-75
2021/04/15 00:46:28;;;;;;;8.78;3.33;;;0.20;99.90;;;;;;1981736;72;21545;-75
2021/04/15 00:48:54;;;;;;;5.30;3.37;;;0.20;99.90;;;;;;1981740;72;21496;-76
2021/04/15 00:51:20;;;;;;;4.35;3.47;;;0.20;99.90;;;;;;1981849;72;21471;-76
2021/04/15 00:53:46;;;;;;;5.60;3.00;;;0.20;99.90;;;;;;1981667;72;21128;-75
2021/04/15 00:56:12;;;;;;;7.83;3.30;;;0.30;99.90;;;;;;1981765;72;21173;-76
2021/04/15 00:58:39;;;;;;;4.00;3.40;;;0.20;99.90;;;;;;1981823;72;21028;-76
2021/04/15 01:01:05;;;;;;;6.70;3.65;;;0.30;99.90;;;;;;1985177;71;21235;-76
2021/04/15 01:03:31;;;;;;;14.13;3.35;;;0.20;99.90;;;;;;1982709;71;21128;-75
2021/04/15 01:05:57;;;;;;;4.08;3.25;;;0.20;99.90;;;;;;1981646;72;21164;-75
2021/04/15 01:08:23;;;;;;;5.37;3.50;;;0.10;99.90;;;;;;1981718;72;21114;-75
2021/04/15 01:10:49;;;;;;;4.65;3.55;;;0.10;99.90;;;;;;1994728;71;21555;-76
2021/04/15 01:13:15;;;;;;;6.40;3.85;;;0.00;99.90;;;;;;1986003;71;21573;-75
2021/04/15 01:15:41;;;;;;;5.08;3.30;;;-0.10;99.90;;;;;;1986352;71;21459;-76
2021/04/15 01:18:08;;;;;;;4.97;3.85;;;0.00;99.90;;;;;;1987239;71;21058;-76
2021/04/15 01:20:34;;;;;;;6.17;4.00;;;-0.10;99.90;;;;;;1981761;72;21055;-75
2021/04/15 01:23:01;;;;;;;5.65;4.00;;;-0.10;99.90;;;;;;1994764;71;21051;-75
2021/04/15 01:25:28;;;;;;;4.78;4.08;;;-0.10;99.90;;;;;;1981751;72;21557;-75
2021/04/15 01:27:54;;;;;;;10.72;4.42;;;-0.10;99.90;;;;;;1981738;72;21436;-76
2021/04/15 01:30:20;;;;;;;6.80;4.28;;;-0.10;99.90;;;;;;1981752;72;21047;-76
2021/04/15 01:32:46;;;;;;;7.53;4.15;;;-0.10;99.90;;;;;;1981704;72;21051;-76
2021/04/15 01:35:12;;;;;;;6.30;4.10;;;-0.10;99.90;;;;;;1981769;72;21039;-75
2021/04/15 01:37:40;;;;;;;4.85;3.80;;;-0.10;99.90;;;;;;1981654;72;21020;-75
2021/04/15 01:40:06;;;;;;;7.05;4.33;;;-0.10;99.90;;;;;;1981824;72;21111;-76
2021/04/15 01:42:32;;;;;;;5.87;3.87;;;-0.10;99.90;;;;;;1981853;72;21109;-76
2021/04/15 01:44:58;;;;;;;8.43;5.33;;;-0.20;99.90;;;;;;1981670;72;21483;-75
2021/04/15 01:47:24;;;;;;;7.22;4.33;;;-0.20;99.90;;;;;;1981863;72;21045;-75
2021/04/15 01:49:50;;;;;;;9.05;4.70;;;-0.10;99.90;;;;;;1981647;72;21051;-76
2021/04/15 01:52:17;;;;;;;10.25;4.65;;;-0.10;99.90;;;;;;1981849;72;21028;-76
2021/04/15 01:54:43;;;;;;;7.08;4.90;;;-0.10;99.90;;;;;;1981607;72;21257;-76
2021/04/15 01:57:09;;;;;;;9.28;4.85;;;-0.20;99.90;;;;;;1981863;72;21055;-76
2021/04/15 01:59:35;;;;;;;9.60;5.42;;;-0.30;99.90;;;;;;1981648;72;21050;-75
2021/04/15 02:02:01;;;;;;;6.58;4.40;;;-0.30;99.90;;;;;;1981828;72;21056;-76
2021/04/15 02:04:27;;;;;;;6.15;4.58;;;-0.40;99.90;;;;;;1981756;72;21024;-75
2021/04/15 02:06:54;;;;;;;6.28;4.75;;;-0.50;99.90;;;;;;1981890;72;21483;-76
2021/04/15 02:09:20;;;;;;;6.65;4.80;;;-0.50;99.90;;;;;;1981730;72;21467;-76
2021/04/15 02:11:46;;;;;;;7.60;5.12;;;-0.40;99.90;;;;;;1981716;72;21442;-75
2021/04/15 02:14:12;;;;;;;8.05;5.28;;;-0.30;99.90;;;;;;1981693;72;21495;-76
2021/04/15 02:16:38;;;;;;;7.70;4.72;;;-0.30;99.90;;;;;;1981732;72;21428;-76
2021/04/15 02:19:04;;;;;;;6.90;5.17;;;-0.30;99.90;;;;;;1981752;72;21117;-76
2021/04/15 02:21:30;;;;;;;9.23;5.33;;;-0.40;99.90;;;;;;1981737;72;21047;-75
2021/04/15 02:23:56;;;;;;;9.03;6.15;;;-0.40;99.90;;;;;;1981749;72;21043;-76
2021/04/15 02:26:23;;;;;;;8.15;5.92;;;-0.40;99.90;;;;;;1981743;72;21047;-76
2021/04/15 02:28:49;;;;;;;9.15;5.95;;;-0.50;99.90;;;;;;1981734;72;20996;-76
2021/04/15 02:31:15;;;;;;;10.55;5.75;;;-0.50;99.90;;;;;;1981723;72;21108;-76
2021/04/15 02:33:41;;;;;;;7.37;5.30;;;-0.50;99.90;;;;;;1981790;72;21125;-75
2021/04/15 02:36:07;;;;;;;9.08;5.80;;;-0.40;99.90;;;;;;1981810;72;21043;-75
2021/04/15 02:38:33;;;;;;;12.37;5.65;;;-0.40;99.90;;;;;;1981817;72;21067;-75
2021/04/15 02:40:59;;;;;;;8.98;5.97;;;-0.40;99.90;;;;;;1981719;72;21484;-75
2021/04/15 02:43:26;;;;;;;8.75;5.35;;;-0.50;99.90;;;;;;1981727;72;21466;-75
2021/04/15 02:45:52;;;;;;;12.03;6.25;;;-0.40;99.90;;;;;;1981720;72;21051;-76
2021/04/15 02:48:18;;;;;;;9.10;5.33;;;-0.40;99.90;;;;;;1981741;72;21003;-75
2021/04/15 02:50:44;;;;;;;7.97;5.33;;;-0.40;99.90;;;;;;1981832;72;21047;-76
2021/04/15 02:53:10;;;;;;;7.92;4.85;;;-0.40;99.90;;;;;;1981640;72;21523;-76
2021/04/15 02:55:37;;;;;;;8.95;5.58;;;-0.50;99.90;;;;;;1981713;72;21468;-76
2021/04/15 02:58:03;;;;;;;8.30;5.67;;;-0.60;99.90;;;;;;1981706;72;21550;-75
2021/04/15 03:00:29;;;;;;;8.93;5.73;;;-0.70;99.90;;;;;;1981595;72;21420;-75
2021/04/15 03:02:55;;;;;;;12.73;5.72;;;-0.60;99.90;;;;;;1981773;72;21047;-77
2021/04/15 03:05:21;;;;;;;8.95;5.65;;;-0.60;99.90;;;;;;1981669;72;21043;-76
2021/04/15 03:07:47;;;;;;;9.97;5.53;;;-0.50;99.90;;;;;;1981662;72;21020;-76
2021/04/15 03:10:13;;;;;;;9.50;5.45;;;-0.60;99.90;;;;;;1981285;71;21109;-76
2021/04/15 03:12:40;;;;;;;11.88;6.03;;;-0.60;99.90;;;;;;1981646;72;21059;-76
2021/04/15 03:15:06;;;;;;;7.33;5.03;;;-0.60;99.90;;;;;;1981625;72;21121;-76
2021/04/15 03:17:32;;;;;;;7.87;5.78;;;-0.60;99.90;;;;;;1981671;72;21063;-76
2021/04/15 03:19:58;;;;;;;8.18;5.33;;;-0.60;99.90;;;;;;1981611;72;21064;-76
2021/04/15 03:22:24;;;;;;;11.48;6.08;;;-0.70;99.90;;;;;;1981534;72;21459;-75
2021/04/15 03:24:50;;;;;;;11.43;6.58;;;-0.80;99.90;;;;;;1981589;72;21546;-76
2021/04/15 03:27:16;;;;;;;8.30;5.10;;;-0.90;99.90;;;;;;1985596;71;21526;-76
2021/04/15 03:29:43;;;;;;;8.10;5.50;;;-0.90;99.90;;;;;;1981754;72;21482;-76
2021/04/15 03:32:09;;;;;;;8.03;5.62;;;-0.90;99.90;;;;;;1985589;71;21028;-76
2021/04/15 03:34:35;;;;;;;8.23;5.50;;;-0.90;99.90;;;;;;1981763;72;21121;-76
2021/04/15 03:37:01;;;;;;;15.10;5.90;;;-1.00;99.90;;;;;;1981547;72;21059;-74
2021/04/15 03:39:27;;;;;;;6.10;4.78;;;-0.90;99.90;;;;;;1981666;72;21147;-75
2021/04/15 03:41:54;;;;;;;7.28;5.97;;;-0.90;99.90;;;;;;1981630;72;21095;-75
2021/04/15 03:44:20;;;;;;;9.13;5.22;;;-1.00;99.90;;;;;;1981764;72;21129;-76
2021/04/15 03:46:46;;;;;;;6.83;4.70;;;-1.00;99.90;;;;;;1981584;72;21028;-75
2021/04/15 03:49:12;;;;;;;9.08;5.45;;;-0.90;99.90;;;;;;1981822;72;21062;-76
2021/04/15 03:51:39;;;;;;;9.48;5.45;;;-0.90;99.90;;;;;;1981911;72;21055;-75
2021/04/15 03:54:05;;;;;;;10.00;6.20;;;-1.00;99.90;;;;;;1981662;72;21128;-74
2021/04/15 03:56:31;;;;;;;9.68;5.45;;;-0.90;99.90;;;;;;1981728;72;21059;-76
2021/04/15 03:58:57;;;;;;;8.65;5.42;;;-0.90;99.90;;;;;;1981665;72;21027;-75
2021/04/15 04:01:23;;;;;;;9.75;5.20;;;-1.00;99.90;;;;;;1981673;72;21101;-76
2021/04/15 04:03:49;;;;;;;8.45;5.05;;;-1.10;99.90;;;;;;1981826;72;21505;-74
2021/04/15 04:06:15;;;;;;;9.43;5.20;;;-1.10;99.90;;;;;;1981607;72;21474;-74
2021/04/15 04:08:42;;;;;;;9.88;5.25;;;-1.00;99.90;;;;;;1981707;72;21447;-75
2021/04/15 04:11:08;;;;;;;11.25;5.65;;;-1.00;99.90;;;;;;1981813;72;21047;-75
2021/04/15 04:13:34;;;;;;;8.68;5.78;;;-1.10;99.90;;;;;;1981883;72;21075;-75
2021/04/15 04:16:00;;;;;;;7.62;5.53;;;-1.10;99.90;;;;;;1981847;72;21047;-75
2021/04/15 04:18:26;;;;;;;6.70;4.87;;;-1.10;99.90;;;;;;1981890;72;21039;-74
2021/04/15 04:20:52;;;;;;;7.42;5.10;;;-1.10;99.90;;;;;;1981879;72;21055;-75
2021/04/15 04:23:18;;;;;;;8.28;5.35;;;-1.10;99.90;;;;;;1981600;72;21128;-75
2021/04/15 04:25:44;;;;;;;8.18;6.30;;;-1.10;99.90;;;;;;1981762;72;21053;-76
2021/04/15 04:28:11;;;;;;;8.95;5.12;;;-1.10;99.90;;;;;;1981565;72;21047;-76
2021/04/15 04:30:37;;;;;;;11.20;6.53;;;-1.10;99.90;;;;;;1981714;72;21141;-75
2021/04/15 04:33:03;;;;;;;8.33;5.33;;;-1.10;99.90;;;;;;1981487;72;21145;-75
2021/04/15 04:35:29;;;;;;;10.48;5.58;;;-1.10;99.90;;;;;;1981720;72;21444;-76
2021/04/15 04:37:55;;;;;;;6.55;5.40;;;-1.00;99.90;;;;;;1981682;72;21512;-76
2021/04/15 04:40:21;;;;;;;9.23;5.45;;;-1.10;99.90;;;;;;1981647;72;21479;-76
2021/04/15 04:42:47;;;;;;;8.93;5.70;;;-1.10;99.90;;;;;;1981660;72;21486;-76
2021/04/15 04:45:13;;;;;;;12.13;6.10;;;-1.10;99.90;;;;;;1981662;72;21113;-75
2021/04/15 04:47:39;;;;;;;9.98;5.60;;;-1.10;99.90;;;;;;1981544;72;21080;-75
2021/04/15 04:50:06;;;;;;;10.70;6.28;;;-1.10;99.90;;;;;;1981733;72;21051;-75
2021/04/15 04:52:32;;;;;;;13.60;6.15;;;-1.10;99.90;;;;;;1981587;72;21211;-76
2021/04/15 04:54:58;;;;;;;8.10;5.22;;;-1.20;99.90;;;;;;1981594;72;21060;-75
2021/04/15 04:57:24;;;;;;;5.70;4.95;;;-1.20;99.90;;;;;;1981490;71;21180;-76
2021/04/15 04:59:50;;;;;;;9.60;5.90;;;-1.20;99.90;;;;;;1981592;72;21054;-75
2021/04/15 05:02:16;;;;;;;10.35;5.47;;;-1.10;99.90;;;;;;1981685;72;21051;-75
2021/04/15 05:04:45;;;;;;;11.85;6.35;;;-1.00;99.90;;;;;;1981628;72;21101;-76
2021/04/15 05:07:11;;;;;;;8.88;5.50;;;-0.80;99.90;;;;;;1981607;72;21028;-77
2021/04/15 05:09:37;;;;;;;10.38;5.67;;;-0.80;99.90;;;;;;1981616;72;21047;-77
2021/04/15 05:12:03;;;;;;;13.00;6.53;;;-0.80;99.90;;;;;;1981704;72;21062;-77
2021/04/15 05:14:30;;;;;;;10.90;6.40;;;-0.90;99.90;;;;;;1981457;72;21099;-77
2021/04/15 05:16:56;;;;;;;8.78;6.10;;;-0.90;99.90;;;;;;1981482;72;21028;-77
2021/04/15 05:19:22;;;;;;;10.15;6.67;;;-0.90;99.90;;;;;;1981945;72;21088;-76
2021/04/15 05:21:48;;;;;;;8.90;5.95;;;-0.80;99.90;;;;;;1990015;71;21128;-78
2021/04/15 05:26:59;;;;;;;9.55;6.45;;;-0.70;99.90;;;;;;1984328;72;21107;-77
2021/04/15 05:29:25;;;;;;;13.93;5.90;;;-0.70;99.90;;;;;;1985435;72;21053;-77
2021/04/15 05:31:52;;;;;;;11.00;7.12;;;-0.70;99.90;;;;;;1985426;72;21044;-78
2021/04/15 05:34:19;;;;;;;7.78;6.08;;;-0.50;99.90;;;;;;1985303;72;21153;-75
2021/04/15 05:36:45;;;;;;;14.30;6.42;;;-0.50;99.90;;;;;;1985447;72;21048;-76
2021/04/15 05:39:11;;;;;;;11.08;6.95;;;-0.40;99.90;;;;;;1985302;72;21105;-76
2021/04/15 05:41:37;;;;;;;11.43;6.80;;;-0.40;99.90;;;;;;1985490;72;21122;-76
2021/04/15 05:44:05;;;;;;;9.45;6.12;;;-0.30;99.90;;;;;;1985728;72;21118;-76
2021/04/15 05:46:31;;;;;;;10.82;6.33;;;-0.20;99.90;;;;;;1985905;72;21217;-76
2021/04/15 05:48:57;;;;;;;8.43;6.30;;;-0.20;99.90;;;;;;1985914;72;21025;-75
2021/04/15 05:51:23;;;;;;;9.30;6.37;;;-0.10;99.90;;;;;;1985561;72;21099;-77
2021/04/15 05:53:49;;;;;;;6.62;5.30;;;0.00;99.90;;;;;;1985347;72;21095;-75
2021/04/15 05:56:15;;;;;;;10.55;6.53;;;0.00;99.90;;;;;;1985472;72;21056;-74
2021/04/15 05:58:42;;;;;;;8.40;6.00;;;0.10;99.90;;;;;;1986046;72;21044;-74
2021/04/15 06:01:08;;;;;;;23.02;6.40;;;0.10;99.90;;;;;;1985536;72;21029;-74
2021/04/15 06:03:34;;;;;;;9.45;5.45;;;0.20;99.90;;;;;;1985395;72;21432;-73
2021/04/15 06:06:00;;;;;;;11.70;6.78;;;0.30;99.90;;;;;;1985295;72;21025;-73
2021/04/15 06:08:26;;;;;;;7.28;5.97;;;0.50;99.90;;;;;;1985434;72;21044;-74
2021/04/15 06:10:52;;;;;;;7.47;5.72;;;0.70;99.90;;;;;;1985762;72;21053;-74
2021/04/15 06:13:18;;;;;;;10.58;6.80;;;0.70;99.90;;;;;;1985513;72;21129;-74
2021/04/15 06:15:45;;;;;;;14.38;7.20;;;0.80;99.90;;;;;;1985479;72;21048;-73
2021/04/15 06:18:11;;;;;;;13.70;7.85;;;0.80;99.90;;;;;;1985456;72;21056;-73
2021/04/15 06:20:37;;;;;;;11.25;6.92;;;1.00;99.90;;;;;;1985389;72;21053;-74
2021/04/15 06:23:03;;;;;;;11.70;6.47;;;1.20;99.90;;;;;;1985562;72;21126;-74
2021/04/15 06:25:29;;;;;;;7.85;6.65;;;1.30;99.90;;;;;;1986490;72;21095;-74
2021/04/15 06:27:55;;;;;;;20.35;6.12;;;1.40;99.90;;;;;;1988041;72;21080;-73
2021/04/15 06:30:21;;;;;;;9.70;6.95;;;1.40;99.90;;;;;;1989462;72;21440;-73
2021/04/15 06:32:47;;;;;;;10.35;6.75;;;1.30;99.90;;;;;;1985388;72;21545;-74
2021/04/15 06:35:14;;;;;;;8.78;6.30;;;1.30;99.90;;;;;;1985353;72;21569;-73
2021/04/15 06:37:40;;;;;;;11.83;6.53;;;1.60;99.90;;;;;;1985360;72;21056;-73
2021/04/15 06:40:06;;;;;;;11.57;6.37;;;1.90;99.90;;;;;;1985294;72;21064;-73
2021/04/15 06:42:32;;;;;;;8.78;6.05;;;2.00;99.90;;;;;;1987729;72;21056;-73
2021/04/15 06:44:59;;;;;;;14.10;6.10;;;2.20;99.90;;;;;;1986475;72;21072;-74
2021/04/15 06:47:25;;;;;;;11.33;6.30;;;2.30;99.90;;;;;;1985340;72;21029;-73
2021/04/15 06:49:51;;;;;;;8.38;6.03;;;2.30;99.90;;;;;;1986715;72;21153;-73
2021/04/15 06:52:17;;;;;;;7.20;5.33;;;2.30;99.90;;;;;;1983577;72;21472;-73
2021/04/15 06:54:43;;;;;;;8.45;5.70;;;2.40;99.90;;;;;;1978855;72;21521;-74
2021/04/15 06:57:09;;;;;;;7.70;5.53;;;2.30;99.90;;;;;;1986594;72;21104;-74
2021/04/15 06:59:35;;;;;;;10.38;6.30;;;2.40;99.90;;;;;;1985492;72;21126;-74
2021/04/15 07:02:01;;;;;;;9.10;5.53;;;2.50;99.90;;;;;;1988097;72;21130;-73
2021/04/15 07:04:28;;;;;;;8.55;5.20;;;2.60;99.90;;;;;;1985807;72;21604;-75
2021/04/15 07:06:54;;;;;;;10.45;5.58;;;2.70;99.90;;;;;;1987428;72;21476;-74
2021/04/15 07:09:20;;;;;;;10.98;5.78;;;3.00;99.90;;;;;;1978654;72;21136;-74
2021/04/15 07:11:46;;;;;;;7.95;5.53;;;3.20;99.90;;;;;;1986262;72;21114;-72
2021/04/15 07:14:12;;;;;;;6.65;5.30;;;3.10;99.90;;;;;;1985260;72;21029;-73
2021/04/15 07:16:38;;;;;;;10.03;6.08;;;3.00;99.90;;;;;;1990604;72;21122;-72
2021/04/15 07:19:04;;;;;;;10.68;6.03;;;3.00;99.90;;;;;;1985460;72;21024;-74
2021/04/15 07:21:31;;;;;;;11.50;6.20;;;3.20;99.90;;;;;;1985350;72;21064;-72
2021/04/15 07:23:57;;;;;;;7.78;5.05;;;3.20;99.90;;;;;;1985392;72;21060;-73
2021/04/15 07:26:23;;;;;;;8.85;5.75;;;3.40;99.90;;;;;;1985422;72;21549;-72
2021/04/15 07:28:49;;;;;;;7.90;5.22;;;3.30;99.90;;;;;;1985410;72;21531;-73
2021/04/15 07:31:16;;;;;;;15.75;5.37;;;3.70;99.90;;;;;;1985531;72;21429;-73
2021/04/15 07:33:43;;;;;;;8.18;5.28;;;4.00;99.90;;;;;;1985362;72;21101;-73
2021/04/15 07:36:09;;;;;;;12.10;5.47;;;4.00;99.90;;;;;;1985449;72;21096;-74
2021/04/15 07:38:35;;;;;;;8.55;4.90;;;4.00;99.90;;;;;;1985319;72;21064;-73
2021/04/15 07:41:01;;;;;;;7.85;4.90;;;4.20;99.90;;;;;;1985346;72;21048;-73
2021/04/15 07:43:27;;;;;;;8.90;5.45;;;4.60;99.90;;;;;;1985318;72;21052;-73
2021/04/15 07:45:53;;;;;;;6.97;5.28;;;4.80;99.90;;;;;;1985328;72;21037;-74
2021/04/15 07:48:20;;;;;;;7.55;4.55;;;4.60;99.90;;;;;;1985495;72;21052;-73
2021/04/15 07:50:46;;;;;;;15.03;5.05;;;4.70;99.90;;;;;;1985501;72;21033;-73
2021/04/15 07:53:12;;;;;;;9.43;4.97;;;5.20;99.90;;;;;;1985441;72;21114;-74
2021/04/15 07:55:38;;;;;;;8.20;4.90;;;5.60;99.90;;;;;;1995507;72;21126;-74
2021/04/15 07:58:04;;;;;;;5.62;4.17;;;6.00;99.90;;;;;;1985554;72;21110;-73
2021/04/15 08:00:30;;;;;;;7.35;4.40;;;5.80;99.90;;;;;;1985446;72;21060;-74
2021/04/15 08:02:56;;;;;;;7.50;4.45;;;6.00;99.90;;;;;;1985483;72;21045;-74
2021/04/15 08:05:23;;;;;;;46.95;8.55;;;6.10;99.90;;;;;;1985368;72;21110;-74
2021/04/15 08:07:49;;;;;;;6.87;4.60;;;5.50;99.90;;;;;;1985336;72;21052;-75
2021/04/15 08:10:15;;;;;;;8.28;3.72;;;5.70;99.90;;;;;;1985427;72;21048;-74
2021/04/15 08:12:41;;;;;;;5.72;4.10;;;6.40;99.90;;;;;;1985376;72;21125;-75
2021/04/15 08:15:07;;;;;;;7.35;4.10;;;7.10;99.90;;;;;;1985380;72;21056;-75
2021/04/15 08:17:33;;;;;;;4.87;3.52;;;7.30;99.90;;;;;;1985469;72;21122;-74
2021/04/15 08:19:59;;;;;;;6.40;3.67;;;7.20;99.90;;;;;;1985326;72;21099;-74
2021/04/15 08:22:25;;;;;;;6.35;3.75;;;7.40;99.90;;;;;;1985550;72;21472;-74
2021/04/15 08:24:52;;;;;;;5.30;3.10;;;7.50;99.90;;;;;;1985347;72;21437;-74
2021/04/15 08:27:18;;;;;;;5.20;3.15;;;7.40;99.90;;;;;;1985348;72;21052;-73
2021/04/15 08:29:45;;;;;;;8.55;3.65;;;7.30;99.90;;;;;;1985355;72;21068;-76
2021/04/15 08:32:11;;;;;;;5.47;2.85;;;7.70;99.90;;;;;;1985493;72;21057;-75
2021/04/15 08:34:37;;;;;;;6.05;3.30;;;7.90;99.90;;;;;;1985289;71;21456;-74
2021/04/15 08:37:04;;;;;;;3.50;2.70;;;7.90;99.90;;;;;;1958727;72;21436;-75
2021/04/15 08:39:32;;;;;;;11.18;3.08;;;8.00;99.90;;;;;;1985361;72;21445;-75
2021/04/15 08:41:57;;;;;;;6.40;3.42;;;7.90;99.90;;;;;;1985237;72;21074;-76
2021/04/15 08:44:24;;;;;;;3.42;2.83;;;8.40;99.90;;;;;;1985358;72;21052;-75
2021/04/15 08:46:52;;;;;;;4.90;2.33;;;7.90;99.90;;;;;;1985449;72;21181;-75
2021/04/15 08:49:17;;;;;;;7.90;2.27;;;7.80;99.90;;;;;;1985211;72;21089;-75
2021/04/15 08:51:44;;;;;;;7.90;2.65;;;7.60;99.90;;;;;;1985204;72;21118;-76
2021/04/15 08:54:10;;;;;;;3.52;2.20;;;7.70;99.90;;;;;;1985307;72;21068;-75
2021/04/15 08:56:36;;;;;;;2.30;1.87;;;8.00;99.90;;;;;;1985114;72;21049;-75
2021/04/15 08:59:02;;;;;;;5.45;2.40;;;7.90;99.90;;;;;;1985492;72;21049;-76
2021/04/15 09:01:28;;;;;;;4.03;2.12;;;8.00;99.90;;;;;;1986212;72;21064;-76
2021/04/15 09:03:54;;;;;;;3.20;2.30;;;8.60;99.90;;;;;;1987077;72;21042;-76
2021/04/15 09:06:20;;;;;;;3.67;1.87;;;8.70;99.90;;;;;;1985245;72;21060;-76
2021/04/15 09:08:47;;;;;;;2.33;1.82;;;8.60;99.90;;;;;;1985593;72;21049;-76
2021/04/15 09:11:13;;;;;;;4.78;2.00;;;8.90;99.90;;;;;;1985185;72;21060;-76
2021/04/15 09:13:39;;;;;;;4.40;2.40;;;9.00;99.90;;;;;;1985179;72;21072;-76
2021/04/15 09:16:05;;;;;;;3.05;1.77;;;9.20;99.90;;;;;;1976480;72;21068;-76
2021/04/15 09:18:33;;;;;;;2.77;2.30;;;9.40;99.90;;;;;;1979365;72;21471;-76
2021/04/15 09:20:59;;;;;;;2.55;1.95;;;9.60;99.90;;;;;;1985103;72;21080;-78
2021/04/15 09:23:31;;;;;;;3.52;1.65;;;9.20;99.90;;;;;;1986602;72;21064;-75
2021/04/15 09:25:53;;;;;;;3.17;1.50;;;8.80;99.90;;;;;;1983816;72;21073;-77
2021/04/15 09:28:19;;;;;;;4.42;2.40;;;8.40;99.90;;;;;;1987755;72;21100;-75
2021/04/15 09:30:45;;;;;;;2.77;1.70;;;7.70;99.90;;;;;;1985702;72;21086;-73
2021/04/15 09:33:11;;;;;;;4.78;1.57;;;7.50;99.90;;;;;;1985562;72;21049;-76
2021/04/15 09:35:37;;;;;;;3.27;1.65;;;7.70;99.90;;;;;;1985479;72;21101;-75
2021/04/15 09:38:03;;;;;;;1.60;1.50;;;8.30;99.90;;;;;;1985486;72;21169;-75
2021/04/15 09:40:29;;;;;;;3.85;1.80;;;8.80;99.90;;;;;;1985371;72;21111;-75
2021/04/15 09:42:56;;;;;;;1.62;1.52;;;8.90;99.90;;;;;;1985401;72;21025;-75
2021/04/15 09:45:22;;;;;;;2.75;1.70;;;9.00;99.90;;;;;;1985494;72;21083;-74
2021/04/15 09:47:48;;;;;;;2.90;2.02;;;9.00;99.90;;;;;;1985507;72;21475;-74
2021/04/15 09:50:19;;;;;;;14.63;2.25;;;8.70;99.90;;;;;;1985647;72;21129;-75
2021/04/15 09:52:42;;;;;;;3.45;1.90;;;8.90;99.90;;;;;;1984972;72;21122;-75
2021/04/15 09:55:08;;;;;;;4.35;1.77;;;8.50;99.90;;;;;;1985541;72;21064;-75
2021/04/15 09:57:34;;;;;;;2.98;1.90;;;8.80;99.90;;;;;;1985593;72;21060;-75
2021/04/15 10:00:00;;;;;;;6.05;2.45;;;8.60;99.90;;;;;;1985680;72;21029;-75
2021/04/15 10:02:27;;;;;;;5.03;2.20;;;8.80;99.90;;;;;;1986308;72;21035;-76
2021/04/15 10:04:53;;;;;;;6.92;2.00;;;8.20;99.90;;;;;;1986537;72;21056;-76
2021/04/15 10:07:19;;;;;;;2.45;1.52;;;8.10;99.90;;;;;;1985318;72;21418;-76
2021/04/15 10:09:45;;;;;;;3.52;1.50;;;8.40;99.90;;;;;;1985541;72;21032;-76
2021/04/15 10:12:11;;;;;;;5.37;1.90;;;8.70;99.90;;;;;;1985447;72;21154;-75
2021/04/15 10:14:37;;;;;;;3.15;1.55;;;8.50;99.90;;;;;;1985491;72;21448;-75
2021/04/15 10:17:03;;;;;;;4.60;1.70;;;8.30;99.90;;;;;;1985415;72;21510;-76
2021/04/15 10:19:32;;;;;;;2.75;1.30;;;8.00;99.90;;;;;;1985267;72;21523;-76
2021/04/15 10:21:57;;;;;;;2.52;1.50;;;7.90;99.90;;;;;;1985296;72;21072;-75
2021/04/15 10:24:23;;;;;;;2.40;1.35;;;7.60;99.90;;;;;;1985471;72;21137;-75
2021/04/15 10:26:49;;;;;;;1.47;1.37;;;7.50;99.90;;;;;;1985346;72;21076;-75
2021/04/15 10:29:16;;;;;;;2.52;1.37;;;7.30;99.90;;;;;;1985441;72;21533;-76
2021/04/15 10:31:42;;;;;;;1.67;1.12;;;7.50;99.90;;;;;;1985448;72;21534;-76
2021/04/15 10:34:08;;;;;;;5.45;1.60;;;7.80;99.90;;;;;;1985359;72;21557;-76
2021/04/15 10:36:34;;;;;;;3.10;1.70;;;7.80;99.90;;;;;;1985297;72;21122;-76
2021/04/15 10:39:00;;;;;;;3.12;1.50;;;7.90;99.90;;;;;;1985305;72;21126;-76
2021/04/15 10:41:26;;;;;;;1.85;1.60;;;8.60;99.90;;;;;;1985451;72;21140;-76
2021/04/15 10:43:52;;;;;;;3.42;1.70;;;9.80;99.90;;;;;;1985383;72;21054;-76
2021/04/15 10:46:19;;;;;;;4.67;1.50;;;9.20;99.90;;;;;;1985465;72;21130;-76
2021/04/15 10:48:45;;;;;;;4.40;1.42;;;9.40;99.90;;;;;;1985414;72;21048;-76
2021/04/15 10:51:12;;;;;;;2.70;1.60;;;9.80;99.90;;;;;;1985456;72;21060;-76
2021/04/15 10:53:39;;;;;;;5.08;2.20;;;10.10;99.90;;;;;;1985436;72;21492;-76
2021/04/15 10:56:05;;;;;;;4.12;1.67;;;10.80;99.90;;;;;;1985400;72;21463;-76
2021/04/15 10:58:31;;;;;;;4.30;2.22;;;10.60;99.90;;;;;;1985418;72;21611;-75
2021/04/15 11:00:57;;;;;;;3.00;1.98;;;10.00;99.90;;;;;;1985448;72;21454;-75
2021/04/15 11:03:23;;;;;;;2.75;1.90;;;9.70;99.90;;;;;;1985421;72;21052;-75
2021/04/15 11:05:50;;;;;;;3.72;1.70;;;9.30;99.90;;;;;;1985419;72;21095;-75
2021/04/15 11:08:16;;;;;;;5.65;1.67;;;8.70;99.90;;;;;;1985356;72;21137;-76
2021/04/15 11:10:42;;;;;;;3.83;1.75;;;8.40;99.90;;;;;;1985407;72;21480;-76
2021/04/15 11:13:08;;;;;;;1.15;1.10;;;8.20;99.90;;;;;;1985363;72;21122;-75
2021/04/15 11:15:35;;;;;;;3.10;1.67;;;8.10;99.90;;;;;;1985393;72;21138;-76
2021/04/15 11:18:01;;;;;;;2.47;1.65;;;7.90;99.90;;;;;;1985438;72;21104;-75
2021/04/15 11:20:27;;;;;;;2.50;1.57;;;7.90;99.90;;;;;;1958395;72;21044;-75
2021/04/15 11:22:53;;;;;;;3.62;1.62;;;8.10;99.90;;;;;;1985668;72;21133;-76
2021/04/15 11:25:19;;;;;;;1.62;1.27;;;8.00;99.90;;;;;;1985426;72;21130;-74
2021/04/15 11:27:45;;;;;;;2.45;1.60;;;7.90;99.90;;;;;;1985352;72;21044;-80
2021/04/15 11:30:11;;;;;;;3.75;1.90;;;8.00;99.90;;;;;;1985490;72;21060;-75
2021/04/15 11:32:37;;;;;;;2.92;1.50;;;8.10;99.90;;;;;;1985474;72;21022;-75
2021/04/15 11:35:04;;;;;;;1.60;1.27;;;7.70;99.90;;;;;;1985364;72;21056;-75
2021/04/15 11:37:30;;;;;;;2.35;1.30;;;7.70;99.90;;;;;;1985460;72;21165;-75
2021/04/15 11:39:56;;;;;;;5.10;1.72;;;8.60;99.90;;;;;;1985397;72;21064;-75
2021/04/15 11:42:22;;;;;;;2.20;1.52;;;9.70;99.90;;;;;;1985347;72;21133;-75
2021/04/15 11:44:48;;;;;;;1.30;1.20;;;9.80;99.90;;;;;;1985327;72;21613;-75
2021/04/15 11:47:14;;;;;;;1.30;1.20;;;10.10;99.90;;;;;;1986643;72;21417;-75
2021/04/15 11:49:40;;;;;;;1.47;1.37;;;10.40;99.90;;;;;;1985416;72;21589;-75
2021/04/15 11:52:06;;;;;;;1.87;1.30;;;10.10;99.90;;;;;;1988089;72;21061;-75
2021/04/15 11:54:33;;;;;;;2.42;1.35;;;9.80;99.90;;;;;;1985950;72;21061;-75
2021/04/15 11:56:59;;;;;;;1.37;0.98;;;10.70;99.90;;;;;;1985945;72;21052;-75
2021/04/15 11:59:25;;;;;;;2.83;1.45;;;11.50;99.90;;;;;;1988290;72;21076;-75
2021/04/15 12:01:51;;;;;;;1.30;1.20;;;12.30;99.90;;;;;;1985390;72;21077;-75
2021/04/15 12:04:17;;;;;;;2.45;1.17;;;12.30;99.90;;;;;;1985468;72;20998;-75
2021/04/15 12:06:43;;;;;;;1.82;1.25;;;12.60;99.40;;;;;;1990208;72;21060;-75
2021/04/15 12:09:09;;;;;;;1.47;1.30;;;12.50;98.60;;;;;;1985318;72;21087;-75
2021/04/15 12:11:36;;;;;;;1.35;1.22;;;11.30;99.90;;;;;;1985388;72;21053;-75
2021/04/15 12:14:02;;;;;;;1.12;1.00;;;11.30;99.90;;;;;;1985562;72;21032;-75
2021/04/15 12:16:29;;;;;;;2.45;1.30;;;11.00;99.90;;;;;;1985342;72;21057;-76
2021/04/15 12:18:55;;;;;;;2.22;1.10;;;10.50;99.90;;;;;;1985379;72;21056;-75
2021/04/15 12:21:21;;;;;;;1.85;1.30;;;10.80;99.90;;;;;;1985450;72;21056;-76
2021/04/15 12:23:47;;;;;;;2.85;1.30;;;11.00;99.90;;;;;;1985561;72;21114;-75
2021/04/15 12:26:14;;;;;;;7.00;1.60;;;10.90;99.90;;;;;;1985352;72;21060;-75
2021/04/15 12:28:40;;;;;;;2.33;1.25;;;11.00;99.90;;;;;;1985447;72;21096;-75
2021/04/15 12:31:06;;;;;;;1.37;1.10;;;12.00;99.00;;;;;;1985269;72;21562;-74
2021/04/15 12:33:32;;;;;;;2.15;1.22;;;12.30;96.80;;;;;;1985384;72;21468;-76
2021/04/15 12:35:58;;;;;;;6.83;1.77;;;12.30;96.70;;;;;;1985162;72;21507;-75
2021/04/15 12:38:24;;;;;;;3.98;1.35;;;12.40;97.10;;;;;;1985365;72;21429;-74
2021/04/15 12:40:50;;;;;;;0.80;0.80;;;12.40;95.60;;;;;;1985355;72;21052;-74
2021/04/15 12:43:16;;;;;;;2.90;1.10;;;12.80;93.90;;;;;;1985583;72;21056;-73
2021/04/15 12:45:43;;;;;;;1.22;0.80;;;12.00;91.80;;;;;;1985542;72;21056;-74